sensor_id;sensor_type;location;lat;lon;timestamp;noise_LAeq;noise_LA_min;noise_LA_max;noise_LA01;noise_LA95
46393;Laerm;32099;53.588;10.176;2023-05-27T00:00:00;36.02;32.47;43.03;;
46393;Laerm;32099;53.588;10.176;2023-05-27T00:02:26;35.30;32.59;41.82;;
46393;Laerm;32099;53.588;10.176;2023-05-27T00:04:51;36.27;32.72;44.10;;
46393;Laerm;32099;53.588;10.176;2023-05-27T00:07:16;35.41;32.35;40.35;;
46393;Laerm;32099;53.588;10.176;2023-05-27T00:09:42;34.74;32.21;40.79;;
46393;Laerm;32099;53.588;10.176;2023-05-27T00:12:07;35.00;32.19;39.29;;
46393;Laerm;32099;53.588;10.176;2023-05-27T00:14:32;36.28;31.82;49.96;;
46393;Laerm;32099;53.588;10.176;2023-05-27T00:16:58;35.12;32.22;40.51;;
46393;Laerm;32099;53.588;10.176;2023-05-27T00:19:24;36.26;32.60;57.55;;
46393;Laerm;32099;53.588;10.176;2023-05-27T00:21:49;35.15;32.01;38.75;;
46393;Laerm;32099;53.588;10.176;2023-05-27T00:24:17;36.56;32.90;41.16;;
46393;Laerm;32099;53.588;10.176;2023-05-27T00:26:43;34.55;31.90;37.79;;
46393;Laerm;32099;53.588;10.176;2023-05-27T00:29:08;34.68;32.13;48.80;;
46393;Laerm;32099;53.588;10.176;2023-05-27T00:31:34;35.15;32.40;40.50;;
46393;Laerm;32099;53.588;10.176;2023-05-27T00:33:59;34.65;32.24;39.55;;
46393;Laerm;32099;53.588;10.176;2023-05-27T00:36:24;45.08;31.64;65.13;;
46393;Laerm;32099;53.588;10.176;2023-05-27T00:38:50;34.84;32.44;43.83;;
46393;Laerm;32099;53.588;10.176;2023-05-27T00:41:15;34.56;32.26;37.78;;
46393;Laerm;32099;53.588;10.176;2023-05-27T00:43:40;36.02;32.53;53.24;;
46393;Laerm;32099;53.588;10.176;2023-05-27T00:46:06;35.89;32.72;40.18;;
46393;Laerm;32099;53.588;10.176;2023-05-27T00:48:32;36.57;32.65;52.02;;
46393;Laerm;32099;53.588;10.176;2023-05-27T00:50:58;35.19;32.28;40.43;;
46393;Laerm;32099;53.588;10.176;2023-05-27T00:53:24;35.78;32.58;42.22;;
46393;Laerm;32099;53.588;10.176;2023-05-27T00:55:53;35.51;32.97;42.04;;
46393;Laerm;32099;53.588;10.176;2023-05-27T00:58:19;36.12;32.59;41.03;;
46393;Laerm;32099;53.588;10.176;2023-05-27T01:00:46;37.36;33.02;47.38;;
46393;Laerm;32099;53.588;10.176;2023-05-27T01:03:12;37.07;33.51;54.45;;
46393;Laerm;32099;53.588;10.176;2023-05-27T01:05:37;36.56;33.00;45.34;;
46393;Laerm;32099;53.588;10.176;2023-05-27T01:08:11;36.17;32.39;46.86;;
46393;Laerm;32099;53.588;10.176;2023-05-27T01:10:50;37.49;33.88;50.83;;
46393;Laerm;32099;53.588;10.176;2023-05-27T01:13:24;36.77;33.66;41.33;;
46393;Laerm;32099;53.588;10.176;2023-05-27T01:15:52;37.04;33.21;40.96;;
46393;Laerm;32099;53.588;10.176;2023-05-27T01:18:19;36.96;33.29;43.92;;
46393;Laerm;32099;53.588;10.176;2023-05-27T01:20:48;37.76;34.06;44.66;;
46393;Laerm;32099;53.588;10.176;2023-05-27T01:23:17;36.01;32.42;44.94;;
46393;Laerm;32099;53.588;10.176;2023-05-27T01:25:42;35.76;32.59;42.24;;
46393;Laerm;32099;53.588;10.176;2023-05-27T01:28:08;36.87;33.63;45.48;;
46393;Laerm;32099;53.588;10.176;2023-05-27T01:30:33;36.79;33.52;42.71;;
46393;Laerm;32099;53.588;10.176;2023-05-27T01:33:03;35.45;32.49;39.41;;
46393;Laerm;32099;53.588;10.176;2023-05-27T01:35:46;36.44;32.70;43.39;;
46393;Laerm;32099;53.588;10.176;2023-05-27T01:38:18;42.07;33.22;59.14;;
46393;Laerm;32099;53.588;10.176;2023-05-27T01:40:46;45.97;33.51;60.76;;
46393;Laerm;32099;53.588;10.176;2023-05-27T01:43:13;41.17;33.17;58.76;;
46393;Laerm;32099;53.588;10.176;2023-05-27T01:45:39;40.49;33.40;54.15;;
46393;Laerm;32099;53.588;10.176;2023-05-27T01:48:05;40.69;32.35;54.89;;
46393;Laerm;32099;53.588;10.176;2023-05-27T01:50:31;45.08;34.21;63.00;;
46393;Laerm;32099;53.588;10.176;2023-05-27T01:52:58;49.75;34.18;64.22;;
46393;Laerm;32099;53.588;10.176;2023-05-27T01:55:24;51.41;34.27;65.61;;
46393;Laerm;32099;53.588;10.176;2023-05-27T01:57:49;51.47;34.86;66.26;;
46393;Laerm;32099;53.588;10.176;2023-05-27T02:00:15;50.54;36.50;66.98;;
46393;Laerm;32099;53.588;10.176;2023-05-27T02:02:41;48.84;36.35;65.37;;
46393;Laerm;32099;53.588;10.176;2023-05-27T02:05:06;48.91;37.92;63.38;;
46393;Laerm;32099;53.588;10.176;2023-05-27T02:07:32;49.54;39.03;64.07;;
46393;Laerm;32099;53.588;10.176;2023-05-27T02:09:58;51.00;37.84;63.10;;
46393;Laerm;32099;53.588;10.176;2023-05-27T02:12:23;51.96;37.72;65.60;;
46393;Laerm;32099;53.588;10.176;2023-05-27T02:14:48;51.64;38.17;65.46;;
46393;Laerm;32099;53.588;10.176;2023-05-27T02:17:14;51.16;39.81;64.78;;
46393;Laerm;32099;53.588;10.176;2023-05-27T02:19:40;50.00;39.23;60.97;;
46393;Laerm;32099;53.588;10.176;2023-05-27T02:22:05;49.79;39.90;61.95;;
46393;Laerm;32099;53.588;10.176;2023-05-27T02:24:31;49.16;38.82;61.96;;
46393;Laerm;32099;53.588;10.176;2023-05-27T02:26:56;48.87;39.64;60.94;;
46393;Laerm;32099;53.588;10.176;2023-05-27T02:29:21;50.51;39.97;66.74;;
46393;Laerm;32099;53.588;10.176;2023-05-27T02:31:46;46.23;38.39;59.72;;
46393;Laerm;32099;53.588;10.176;2023-05-27T02:34:12;46.24;39.48;60.00;;
46393;Laerm;32099;53.588;10.176;2023-05-27T02:36:37;57.11;39.24;83.15;;
46393;Laerm;32099;53.588;10.176;2023-05-27T02:39:03;49.58;39.14;65.38;;
46393;Laerm;32099;53.588;10.176;2023-05-27T02:41:29;50.42;38.04;65.93;;
46393;Laerm;32099;53.588;10.176;2023-05-27T02:43:54;50.91;39.66;66.88;;
46393;Laerm;32099;53.588;10.176;2023-05-27T02:46:19;49.68;36.54;66.57;;
46393;Laerm;32099;53.588;10.176;2023-05-27T02:48:45;47.06;37.68;64.49;;
46393;Laerm;32099;53.588;10.176;2023-05-27T02:51:11;44.75;37.93;56.10;;
46393;Laerm;32099;53.588;10.176;2023-05-27T02:53:36;47.65;38.92;65.34;;
46393;Laerm;32099;53.588;10.176;2023-05-27T02:56:01;43.50;39.04;53.27;;
46393;Laerm;32099;53.588;10.176;2023-05-27T02:58:26;43.79;39.12;56.15;;
46393;Laerm;32099;53.588;10.176;2023-05-27T03:00:52;45.56;38.86;64.88;;
46393;Laerm;32099;53.588;10.176;2023-05-27T03:03:17;44.35;37.98;54.05;;
46393;Laerm;32099;53.588;10.176;2023-05-27T03:05:43;42.90;38.23;58.61;;
46393;Laerm;32099;53.588;10.176;2023-05-27T03:08:08;43.27;38.58;50.40;;
46393;Laerm;32099;53.588;10.176;2023-05-27T03:10:34;47.57;38.99;64.73;;
46393;Laerm;32099;53.588;10.176;2023-05-27T03:12:59;45.60;38.92;61.58;;
46393;Laerm;32099;53.588;10.176;2023-05-27T03:15:24;45.66;39.30;64.60;;
46393;Laerm;32099;53.588;10.176;2023-05-27T03:17:50;44.35;39.28;54.38;;
46393;Laerm;32099;53.588;10.176;2023-05-27T03:20:15;44.51;38.37;57.19;;
46393;Laerm;32099;53.588;10.176;2023-05-27T03:22:42;44.86;38.11;57.14;;
46393;Laerm;32099;53.588;10.176;2023-05-27T03:25:07;48.88;39.02;66.57;;
46393;Laerm;32099;53.588;10.176;2023-05-27T03:27:32;45.33;39.47;56.68;;
46393;Laerm;32099;53.588;10.176;2023-05-27T03:29:58;49.83;39.75;66.33;;
46393;Laerm;32099;53.588;10.176;2023-05-27T03:32:23;50.86;39.53;69.32;;
46393;Laerm;32099;53.588;10.176;2023-05-27T03:34:49;52.32;39.17;68.61;;
46393;Laerm;32099;53.588;10.176;2023-05-27T03:37:14;49.99;40.36;66.57;;
46393;Laerm;32099;53.588;10.176;2023-05-27T03:39:40;48.91;40.19;66.66;;
46393;Laerm;32099;53.588;10.176;2023-05-27T03:42:05;50.21;38.56;66.14;;
46393;Laerm;32099;53.588;10.176;2023-05-27T03:44:31;49.74;39.91;67.62;;
46393;Laerm;32099;53.588;10.176;2023-05-27T03:46:57;48.84;38.25;66.13;;
46393;Laerm;32099;53.588;10.176;2023-05-27T03:49:22;47.25;40.80;66.97;;
46393;Laerm;32099;53.588;10.176;2023-05-27T03:51:47;44.06;39.09;57.23;;
46393;Laerm;32099;53.588;10.176;2023-05-27T03:54:13;53.45;38.18;79.81;;
46393;Laerm;32099;53.588;10.176;2023-05-27T03:56:38;44.79;40.73;52.68;;
46393;Laerm;32099;53.588;10.176;2023-05-27T03:59:03;43.98;39.16;54.16;;
46393;Laerm;32099;53.588;10.176;2023-05-27T04:01:28;44.52;39.41;53.03;;
46393;Laerm;32099;53.588;10.176;2023-05-27T04:03:54;45.12;39.94;52.10;;
46393;Laerm;32099;53.588;10.176;2023-05-27T04:06:20;48.65;40.03;65.25;;
46393;Laerm;32099;53.588;10.176;2023-05-27T04:08:45;49.67;40.53;61.23;;
46393;Laerm;32099;53.588;10.176;2023-05-27T04:11:12;48.41;40.58;59.87;;
46393;Laerm;32099;53.588;10.176;2023-05-27T04:13:38;47.90;40.30;63.37;;
46393;Laerm;32099;53.588;10.176;2023-05-27T04:16:03;47.13;39.58;61.01;;
46393;Laerm;32099;53.588;10.176;2023-05-27T04:18:28;46.61;41.60;61.26;;
46393;Laerm;32099;53.588;10.176;2023-05-27T04:20:54;46.64;41.50;62.01;;
46393;Laerm;32099;53.588;10.176;2023-05-27T04:23:19;51.28;40.94;71.04;;
46393;Laerm;32099;53.588;10.176;2023-05-27T04:25:45;45.49;40.67;52.64;;
46393;Laerm;32099;53.588;10.176;2023-05-27T04:28:10;45.27;40.69;54.38;;
46393;Laerm;32099;53.588;10.176;2023-05-27T04:30:36;47.27;42.57;56.92;;
46393;Laerm;32099;53.588;10.176;2023-05-27T04:33:02;47.23;40.97;58.09;;
46393;Laerm;32099;53.588;10.176;2023-05-27T04:35:28;47.64;41.88;59.21;;
46393;Laerm;32099;53.588;10.176;2023-05-27T04:37:56;46.67;39.74;58.88;;
46393;Laerm;32099;53.588;10.176;2023-05-27T04:40:24;45.54;40.76;69.64;;
46393;Laerm;32099;53.588;10.176;2023-05-27T04:42:49;45.13;40.55;67.79;;
46393;Laerm;32099;53.588;10.176;2023-05-27T04:45:15;45.96;41.63;59.42;;
46393;Laerm;32099;53.588;10.176;2023-05-27T04:47:41;47.70;40.55;68.32;;
46393;Laerm;32099;53.588;10.176;2023-05-27T04:50:08;46.17;41.59;52.04;;
46393;Laerm;32099;53.588;10.176;2023-05-27T04:52:34;48.42;42.16;63.16;;
46393;Laerm;32099;53.588;10.176;2023-05-27T04:55:04;51.43;43.28;66.34;;
46393;Laerm;32099;53.588;10.176;2023-05-27T04:57:30;50.82;41.35;68.28;;
46393;Laerm;32099;53.588;10.176;2023-05-27T04:59:55;52.09;41.48;69.40;;
46393;Laerm;32099;53.588;10.176;2023-05-27T05:02:30;49.93;42.64;70.11;;
46393;Laerm;32099;53.588;10.176;2023-05-27T05:05:05;51.80;42.32;61.03;;
46393;Laerm;32099;53.588;10.176;2023-05-27T05:07:31;50.23;41.92;65.55;;
46393;Laerm;32099;53.588;10.176;2023-05-27T05:09:57;48.06;41.65;59.93;;
46393;Laerm;32099;53.588;10.176;2023-05-27T05:12:23;48.51;41.01;60.05;;
46393;Laerm;32099;53.588;10.176;2023-05-27T05:14:49;47.26;42.01;59.60;;
46393;Laerm;32099;53.588;10.176;2023-05-27T05:17:14;47.75;41.14;53.48;;
46393;Laerm;32099;53.588;10.176;2023-05-27T05:19:39;46.39;40.91;55.63;;
46393;Laerm;32099;53.588;10.176;2023-05-27T05:22:05;47.75;41.81;59.95;;
46393;Laerm;32099;53.588;10.176;2023-05-27T05:24:30;47.22;40.86;63.18;;
46393;Laerm;32099;53.588;10.176;2023-05-27T05:26:56;48.94;39.99;71.92;;
46393;Laerm;32099;53.588;10.176;2023-05-27T05:29:21;51.99;41.59;70.33;;
46393;Laerm;32099;53.588;10.176;2023-05-27T05:31:46;46.14;41.45;54.79;;
46393;Laerm;32099;53.588;10.176;2023-05-27T05:34:12;49.23;41.85;67.85;;
46393;Laerm;32099;53.588;10.176;2023-05-27T05:36:37;47.32;42.85;54.25;;
46393;Laerm;32099;53.588;10.176;2023-05-27T05:39:03;48.98;39.78;65.96;;
46393;Laerm;32099;53.588;10.176;2023-05-27T05:41:29;49.28;42.22;70.01;;
46393;Laerm;32099;53.588;10.176;2023-05-27T05:43:54;51.89;42.13;68.54;;
46393;Laerm;32099;53.588;10.176;2023-05-27T05:46:20;50.05;39.00;69.71;;
46393;Laerm;32099;53.588;10.176;2023-05-27T05:48:45;51.79;39.38;72.01;;
46393;Laerm;32099;53.588;10.176;2023-05-27T05:51:10;42.88;38.86;50.66;;
46393;Laerm;32099;53.588;10.176;2023-05-27T05:53:36;43.56;38.59;59.56;;
46393;Laerm;32099;53.588;10.176;2023-05-27T05:56:01;45.01;38.66;61.24;;
46393;Laerm;32099;53.588;10.176;2023-05-27T05:58:27;47.80;38.61;61.62;;
46393;Laerm;32099;53.588;10.176;2023-05-27T06:00:52;48.42;37.50;64.59;;
46393;Laerm;32099;53.588;10.176;2023-05-27T06:03:17;51.73;36.86;67.67;;
46393;Laerm;32099;53.588;10.176;2023-05-27T06:05:42;45.89;37.10;55.78;;
46393;Laerm;32099;53.588;10.176;2023-05-27T06:08:08;54.05;37.06;73.62;;
46393;Laerm;32099;53.588;10.176;2023-05-27T06:10:33;51.40;36.45;71.73;;
46393;Laerm;32099;53.588;10.176;2023-05-27T06:12:58;41.05;34.34;58.06;;
46393;Laerm;32099;53.588;10.176;2023-05-27T06:15:23;43.59;35.68;52.90;;
46393;Laerm;32099;53.588;10.176;2023-05-27T06:17:49;52.54;34.47;70.71;;
46393;Laerm;32099;53.588;10.176;2023-05-27T06:20:14;51.18;33.88;71.55;;
46393;Laerm;32099;53.588;10.176;2023-05-27T06:22:39;47.52;33.30;65.72;;
46393;Laerm;32099;53.588;10.176;2023-05-27T06:25:05;50.86;33.83;66.97;;
46393;Laerm;32099;53.588;10.176;2023-05-27T06:27:31;53.28;33.30;74.04;;
46393;Laerm;32099;53.588;10.176;2023-05-27T06:29:56;50.39;32.93;74.20;;
46393;Laerm;32099;53.588;10.176;2023-05-27T06:32:22;53.11;33.24;72.17;;
46393;Laerm;32099;53.588;10.176;2023-05-27T06:34:47;53.60;33.18;71.06;;
46393;Laerm;32099;53.588;10.176;2023-05-27T06:37:12;52.06;33.46;70.68;;
46393;Laerm;32099;53.588;10.176;2023-05-27T06:39:38;39.58;33.12;51.21;;
46393;Laerm;32099;53.588;10.176;2023-05-27T06:42:03;49.87;32.71;69.51;;
46393;Laerm;32099;53.588;10.176;2023-05-27T06:44:29;50.04;34.79;67.44;;
46393;Laerm;32099;53.588;10.176;2023-05-27T06:46:54;54.36;33.53;74.21;;
46393;Laerm;32099;53.588;10.176;2023-05-27T06:49:19;52.60;32.76;70.62;;
46393;Laerm;32099;53.588;10.176;2023-05-27T06:51:45;54.68;32.53;76.92;;
46393;Laerm;32099;53.588;10.176;2023-05-27T06:54:10;51.54;32.46;72.77;;
46393;Laerm;32099;53.588;10.176;2023-05-27T06:56:37;48.72;32.55;65.42;;
46393;Laerm;32099;53.588;10.176;2023-05-27T06:59:02;47.86;32.13;66.61;;
46393;Laerm;32099;53.588;10.176;2023-05-27T07:01:28;48.17;32.93;67.98;;
46393;Laerm;32099;53.588;10.176;2023-05-27T07:03:53;57.12;33.49;89.70;;
46393;Laerm;32099;53.588;10.176;2023-05-27T07:06:18;64.93;32.02;80.39;;
46393;Laerm;32099;53.588;10.176;2023-05-27T07:08:44;50.75;31.98;72.22;;
46393;Laerm;32099;53.588;10.176;2023-05-27T07:11:09;50.82;32.67;70.06;;
46393;Laerm;32099;53.588;10.176;2023-05-27T07:13:34;53.00;32.15;74.71;;
46393;Laerm;32099;53.588;10.176;2023-05-27T07:16:00;37.75;31.89;48.87;;
46393;Laerm;32099;53.588;10.176;2023-05-27T07:18:25;51.35;32.42;67.59;;
46393;Laerm;32099;53.588;10.176;2023-05-27T07:20:50;48.16;33.62;66.30;;
46393;Laerm;32099;53.588;10.176;2023-05-27T07:23:15;54.31;32.31;73.11;;
46393;Laerm;32099;53.588;10.176;2023-05-27T07:25:41;49.10;32.00;66.48;;
46393;Laerm;32099;53.588;10.176;2023-05-27T07:28:06;53.92;33.76;73.43;;
46393;Laerm;32099;53.588;10.176;2023-05-27T07:30:31;45.24;33.26;58.39;;
46393;Laerm;32099;53.588;10.176;2023-05-27T07:32:57;42.79;32.41;57.99;;
46393;Laerm;32099;53.588;10.176;2023-05-27T07:35:22;41.89;31.88;54.40;;
46393;Laerm;32099;53.588;10.176;2023-05-27T07:37:48;51.44;35.96;64.83;;
46393;Laerm;32099;53.588;10.176;2023-05-27T07:40:13;50.04;32.92;68.91;;
46393;Laerm;32099;53.588;10.176;2023-05-27T07:42:38;52.08;32.63;69.06;;
46393;Laerm;32099;53.588;10.176;2023-05-27T07:45:04;50.70;33.15;66.00;;
46393;Laerm;32099;53.588;10.176;2023-05-27T07:47:29;51.09;32.34;72.08;;
46393;Laerm;32099;53.588;10.176;2023-05-27T07:49:55;41.99;31.14;64.82;;
46393;Laerm;32099;53.588;10.176;2023-05-27T07:52:20;46.79;31.05;64.51;;
46393;Laerm;32099;53.588;10.176;2023-05-27T07:54:45;53.25;33.10;70.28;;
46393;Laerm;32099;53.588;10.176;2023-05-27T07:57:10;38.79;30.53;59.49;;
46393;Laerm;32099;53.588;10.176;2023-05-27T07:59:36;50.67;31.50;69.30;;
46393;Laerm;32099;53.588;10.176;2023-05-27T08:02:01;53.58;32.61;69.20;;
46393;Laerm;32099;53.588;10.176;2023-05-27T08:04:26;49.01;32.33;65.84;;
46393;Laerm;32099;53.588;10.176;2023-05-27T08:06:52;48.95;32.60;67.99;;
46393;Laerm;32099;53.588;10.176;2023-05-27T08:09:17;52.99;31.97;73.04;;
46393;Laerm;32099;53.588;10.176;2023-05-27T08:11:42;56.49;33.11;72.95;;
46393;Laerm;32099;53.588;10.176;2023-05-27T08:14:08;49.14;31.60;66.56;;
46393;Laerm;32099;53.588;10.176;2023-05-27T08:16:33;45.02;31.65;63.78;;
46393;Laerm;32099;53.588;10.176;2023-05-27T08:18:58;52.67;31.68;70.05;;
46393;Laerm;32099;53.588;10.176;2023-05-27T08:21:23;58.03;30.72;76.57;;
46393;Laerm;32099;53.588;10.176;2023-05-27T08:23:49;53.02;30.37;74.55;;
46393;Laerm;32099;53.588;10.176;2023-05-27T08:26:15;48.80;30.86;68.11;;
46393;Laerm;32099;53.588;10.176;2023-05-27T08:28:40;49.51;31.64;63.15;;
46393;Laerm;32099;53.588;10.176;2023-05-27T08:31:06;52.27;30.69;70.11;;
46393;Laerm;32099;53.588;10.176;2023-05-27T08:33:31;53.03;33.70;68.33;;
46393;Laerm;32099;53.588;10.176;2023-05-27T08:35:57;44.02;32.79;70.24;;
46393;Laerm;32099;53.588;10.176;2023-05-27T08:38:22;49.38;32.68;65.82;;
46393;Laerm;32099;53.588;10.176;2023-05-27T08:40:48;49.56;31.75;70.53;;
46393;Laerm;32099;53.588;10.176;2023-05-27T08:43:13;51.39;31.70;69.18;;
46393;Laerm;32099;53.588;10.176;2023-05-27T08:45:39;39.98;31.97;62.04;;
46393;Laerm;32099;53.588;10.176;2023-05-27T08:48:09;40.45;31.82;53.02;;
46393;Laerm;32099;53.588;10.176;2023-05-27T08:50:35;52.08;34.74;77.43;;
46393;Laerm;32099;53.588;10.176;2023-05-27T08:53:00;44.91;34.91;65.79;;
46393;Laerm;32099;53.588;10.176;2023-05-27T08:55:27;50.06;35.62;66.37;;
46393;Laerm;32099;53.588;10.176;2023-05-27T08:57:55;50.20;33.80;68.92;;
46393;Laerm;32099;53.588;10.176;2023-05-27T09:00:22;49.87;34.45;66.49;;
46393;Laerm;32099;53.588;10.176;2023-05-27T09:02:47;50.36;31.17;68.96;;
46393;Laerm;32099;53.588;10.176;2023-05-27T09:05:15;57.61;36.98;72.51;;
46393;Laerm;32099;53.588;10.176;2023-05-27T09:07:41;48.68;30.79;68.55;;
46393;Laerm;32099;53.588;10.176;2023-05-27T09:10:07;47.30;31.01;66.83;;
46393;Laerm;32099;53.588;10.176;2023-05-27T09:12:34;44.12;30.61;63.62;;
46393;Laerm;32099;53.588;10.176;2023-05-27T09:15:00;51.49;31.81;66.52;;
46393;Laerm;32099;53.588;10.176;2023-05-27T09:17:26;44.47;30.79;60.43;;
46393;Laerm;32099;53.588;10.176;2023-05-27T09:19:52;59.56;31.16;78.98;;
46393;Laerm;32099;53.588;10.176;2023-05-27T09:22:23;49.81;33.74;68.30;;
46393;Laerm;32099;53.588;10.176;2023-05-27T09:24:49;38.57;31.11;52.75;;
46393;Laerm;32099;53.588;10.176;2023-05-27T09:27:15;49.24;31.43;68.62;;
46393;Laerm;32099;53.588;10.176;2023-05-27T09:29:40;48.76;30.87;62.82;;
46393;Laerm;32099;53.588;10.176;2023-05-27T09:32:05;53.92;32.42;66.33;;
46393;Laerm;32099;53.588;10.176;2023-05-27T09:34:37;50.17;31.10;59.05;;
46393;Laerm;32099;53.588;10.176;2023-05-27T09:37:03;50.89;32.80;65.17;;
46393;Laerm;32099;53.588;10.176;2023-05-27T09:39:28;51.90;32.00;70.97;;
46393;Laerm;32099;53.588;10.176;2023-05-27T09:41:54;58.02;33.64;73.37;;
46393;Laerm;32099;53.588;10.176;2023-05-27T09:44:24;54.28;32.24;68.98;;
46393;Laerm;32099;53.588;10.176;2023-05-27T09:46:53;58.65;32.69;77.70;;
46393;Laerm;32099;53.588;10.176;2023-05-27T09:49:19;54.54;32.65;69.83;;
46393;Laerm;32099;53.588;10.176;2023-05-27T09:51:46;44.13;31.26;61.91;;
46393;Laerm;32099;53.588;10.176;2023-05-27T09:54:17;49.39;36.59;66.88;;
46393;Laerm;32099;53.588;10.176;2023-05-27T09:56:44;50.00;36.76;68.00;;
46393;Laerm;32099;53.588;10.176;2023-05-27T09:59:10;46.28;31.07;64.84;;
46393;Laerm;32099;53.588;10.176;2023-05-27T10:01:36;51.88;34.48;69.79;;
46393;Laerm;32099;53.588;10.176;2023-05-27T10:04:03;53.48;31.68;71.08;;
46393;Laerm;32099;53.588;10.176;2023-05-27T10:06:29;57.57;32.70;72.51;;
46393;Laerm;32099;53.588;10.176;2023-05-27T10:08:57;54.15;32.37;71.65;;
46393;Laerm;32099;53.588;10.176;2023-05-27T10:11:23;49.66;30.83;68.08;;
46393;Laerm;32099;53.588;10.176;2023-05-27T10:13:49;50.14;30.88;69.04;;
46393;Laerm;32099;53.588;10.176;2023-05-27T10:16:23;48.88;32.28;65.97;;
46393;Laerm;32099;53.588;10.176;2023-05-27T10:18:53;48.22;31.72;64.26;;
46393;Laerm;32099;53.588;10.176;2023-05-27T10:21:19;53.78;31.78;70.47;;
46393;Laerm;32099;53.588;10.176;2023-05-27T10:23:55;49.52;30.56;67.42;;
46393;Laerm;32099;53.588;10.176;2023-05-27T10:26:35;47.77;28.44;60.82;;
46393;Laerm;32099;53.588;10.176;2023-05-27T10:29:11;50.42;28.80;67.18;;
46393;Laerm;32099;53.588;10.176;2023-05-27T10:31:51;48.16;29.07;64.42;;
46393;Laerm;32099;53.588;10.176;2023-05-27T10:34:16;50.93;28.67;65.06;;
46393;Laerm;32099;53.588;10.176;2023-05-27T10:36:43;47.98;28.80;66.36;;
46393;Laerm;32099;53.588;10.176;2023-05-27T10:39:14;50.49;29.20;59.34;;
46393;Laerm;32099;53.588;10.176;2023-05-27T10:41:51;54.73;48.49;66.33;;
46393;Laerm;32099;53.588;10.176;2023-05-27T10:44:36;53.48;46.06;64.52;;
46393;Laerm;32099;53.588;10.176;2023-05-27T10:47:13;58.03;49.31;70.80;;
46393;Laerm;32099;53.588;10.176;2023-05-27T10:49:39;45.96;28.50;65.68;;
46393;Laerm;32099;53.588;10.176;2023-05-27T10:52:09;52.26;30.37;69.24;;
46393;Laerm;32099;53.588;10.176;2023-05-27T10:54:42;50.15;29.39;66.78;;
46393;Laerm;32099;53.588;10.176;2023-05-27T10:57:08;45.87;29.15;67.49;;
46393;Laerm;32099;53.588;10.176;2023-05-27T10:59:47;48.47;29.75;67.51;;
46393;Laerm;32099;53.588;10.176;2023-05-27T11:02:13;51.10;29.32;70.54;;
46393;Laerm;32099;53.588;10.176;2023-05-27T11:04:39;44.22;28.20;62.83;;
46393;Laerm;32099;53.588;10.176;2023-05-27T11:07:04;51.78;28.77;71.96;;
46393;Laerm;32099;53.588;10.176;2023-05-27T11:09:30;43.40;29.12;64.80;;
46393;Laerm;32099;53.588;10.176;2023-05-27T11:11:56;49.64;29.55;66.79;;
46393;Laerm;32099;53.588;10.176;2023-05-27T11:14:25;51.21;30.15;79.37;;
46393;Laerm;32099;53.588;10.176;2023-05-27T11:16:50;48.74;28.86;66.54;;
46393;Laerm;32099;53.588;10.176;2023-05-27T11:19:20;49.24;29.07;69.80;;
46393;Laerm;32099;53.588;10.176;2023-05-27T11:21:46;46.33;28.33;62.63;;
46393;Laerm;32099;53.588;10.176;2023-05-27T11:24:18;39.75;28.71;65.39;;
46393;Laerm;32099;53.588;10.176;2023-05-27T11:26:46;36.96;29.23;52.30;;
46393;Laerm;32099;53.588;10.176;2023-05-27T11:29:12;39.13;28.97;64.35;;
46393;Laerm;32099;53.588;10.176;2023-05-27T11:31:38;47.81;29.95;67.13;;
46393;Laerm;32099;53.588;10.176;2023-05-27T11:34:13;45.79;29.42;62.30;;
46393;Laerm;32099;53.588;10.176;2023-05-27T11:36:40;36.25;29.13;50.22;;
46393;Laerm;32099;53.588;10.176;2023-05-27T11:39:05;52.28;30.03;66.46;;
46393;Laerm;32099;53.588;10.176;2023-05-27T11:41:32;38.94;28.80;67.36;;
46393;Laerm;32099;53.588;10.176;2023-05-27T11:44:05;52.96;29.20;72.30;;
46393;Laerm;32099;53.588;10.176;2023-05-27T11:46:37;43.36;29.32;62.36;;
46393;Laerm;32099;53.588;10.176;2023-05-27T11:49:04;44.88;28.52;65.40;;
46393;Laerm;32099;53.588;10.176;2023-05-27T11:51:30;40.94;28.72;57.32;;
46393;Laerm;32099;53.588;10.176;2023-05-27T11:53:56;46.67;28.72;64.34;;
46393;Laerm;32099;53.588;10.176;2023-05-27T11:56:22;38.40;28.31;61.61;;
46393;Laerm;32099;53.588;10.176;2023-05-27T11:58:47;37.30;28.75;60.34;;
46393;Laerm;32099;53.588;10.176;2023-05-27T12:01:12;51.14;28.87;69.98;;
46393;Laerm;32099;53.588;10.176;2023-05-27T12:03:38;35.52;28.59;51.84;;
46393;Laerm;32099;53.588;10.176;2023-05-27T12:06:03;50.60;29.86;64.64;;
46393;Laerm;32099;53.588;10.176;2023-05-27T12:08:29;50.96;30.03;68.79;;
46393;Laerm;32099;53.588;10.176;2023-05-27T12:10:54;48.39;29.52;63.83;;
46393;Laerm;32099;53.588;10.176;2023-05-27T12:13:20;48.47;29.64;76.95;;
46393;Laerm;32099;53.588;10.176;2023-05-27T12:15:49;40.97;29.32;69.50;;
46393;Laerm;32099;53.588;10.176;2023-05-27T12:18:15;44.77;29.13;63.43;;
46393;Laerm;32099;53.588;10.176;2023-05-27T12:20:41;48.00;30.71;66.03;;
46393;Laerm;32099;53.588;10.176;2023-05-27T12:23:06;43.76;29.43;61.97;;
46393;Laerm;32099;53.588;10.176;2023-05-27T12:25:31;42.83;29.08;63.58;;
46393;Laerm;32099;53.588;10.176;2023-05-27T12:27:57;46.13;29.43;63.99;;
46393;Laerm;32099;53.588;10.176;2023-05-27T12:30:22;45.20;28.56;67.12;;
46393;Laerm;32099;53.588;10.176;2023-05-27T12:32:47;40.88;28.31;60.70;;
46393;Laerm;32099;53.588;10.176;2023-05-27T12:35:13;52.68;29.45;72.64;;
46393;Laerm;32099;53.588;10.176;2023-05-27T12:37:38;43.35;29.33;61.05;;
46393;Laerm;32099;53.588;10.176;2023-05-27T12:40:04;48.94;28.99;67.12;;
46393;Laerm;32099;53.588;10.176;2023-05-27T12:42:30;45.00;29.89;62.66;;
46393;Laerm;32099;53.588;10.176;2023-05-27T12:44:56;47.34;29.92;65.78;;
46393;Laerm;32099;53.588;10.176;2023-05-27T12:47:21;34.53;28.97;46.92;;
46393;Laerm;32099;53.588;10.176;2023-05-27T12:49:46;44.07;29.22;65.76;;
46393;Laerm;32099;53.588;10.176;2023-05-27T12:52:12;43.73;28.48;64.34;;
46393;Laerm;32099;53.588;10.176;2023-05-27T12:54:39;42.66;28.92;60.45;;
46393;Laerm;32099;53.588;10.176;2023-05-27T12:57:04;41.22;28.52;58.43;;
46393;Laerm;32099;53.588;10.176;2023-05-27T12:59:33;45.88;30.61;66.06;;
46393;Laerm;32099;53.588;10.176;2023-05-27T13:01:58;44.75;30.37;68.01;;
46393;Laerm;32099;53.588;10.176;2023-05-27T13:04:24;45.34;30.46;61.39;;
46393;Laerm;32099;53.588;10.176;2023-05-27T13:06:49;44.57;31.17;63.18;;
46393;Laerm;32099;53.588;10.176;2023-05-27T13:09:15;37.66;29.08;55.14;;
46393;Laerm;32099;53.588;10.176;2023-05-27T13:11:41;37.60;28.84;60.65;;
46393;Laerm;32099;53.588;10.176;2023-05-27T13:14:06;49.57;28.65;65.51;;
46393;Laerm;32099;53.588;10.176;2023-05-27T13:16:32;48.15;29.57;73.06;;
46393;Laerm;32099;53.588;10.176;2023-05-27T13:18:57;44.70;29.84;62.26;;
46393;Laerm;32099;53.588;10.176;2023-05-27T13:21:22;41.35;29.06;58.79;;
46393;Laerm;32099;53.588;10.176;2023-05-27T13:23:47;47.04;28.98;64.27;;
46393;Laerm;32099;53.588;10.176;2023-05-27T13:26:13;42.49;28.68;59.21;;